createdAt,value
2023-03-13T00:00:13.007Z,99702.63
2023-03-13T00:02:41.539Z,99693.53
2023-03-13T00:05:10.346Z,99698.00
2023-03-13T00:07:38.704Z,99693.66
2023-03-13T00:10:08.243Z,99694.00
2023-03-13T00:12:38.712Z,99679.31
2023-03-13T00:15:07.800Z,99679.75
2023-03-13T00:17:37.656Z,99678.13
2023-03-13T00:20:07.360Z,99675.53
2023-03-13T00:22:35.714Z,99672.88
2023-03-13T00:25:03.806Z,99655.22
2023-03-13T00:27:34.453Z,99651.81
2023-03-13T00:30:02.761Z,99649.66
2023-03-13T00:32:31.075Z,99647.03
2023-03-13T00:35:00.724Z,99636.50
2023-03-13T00:37:28.959Z,99639.97
2023-03-13T00:39:59.099Z,99631.97
2023-03-13T00:42:27.511Z,99626.84
2023-03-13T00:44:56.760Z,99619.94
2023-03-13T00:47:27.319Z,99618.06
2023-03-13T00:49:55.414Z,99609.19
2023-03-13T00:52:26.380Z,99602.53
2023-03-13T00:54:56.713Z,99585.66
2023-03-13T00:57:25.062Z,99605.25
2023-03-13T00:59:56.092Z,99600.59
2023-03-13T01:02:24.327Z,99599.88
2023-03-13T01:04:53.996Z,99597.91
2023-03-13T01:07:27.475Z,99585.47
2023-03-13T01:09:55.876Z,99583.53
2023-03-13T01:12:26.235Z,99580.66
2023-03-13T01:14:54.479Z,99574.47
2023-03-13T01:17:23.643Z,99567.81
2023-03-13T01:19:52.245Z,99572.19
2023-03-13T01:22:20.442Z,99563.22
2023-03-13T01:24:52.435Z,99557.16
2023-03-13T01:27:21.720Z,99557.34
2023-03-13T01:29:52.241Z,99544.09
2023-03-13T01:32:20.541Z,99542.28
2023-03-13T01:34:48.781Z,99544.31
2023-03-13T01:37:17.180Z,99540.16
2023-03-13T01:39:45.259Z,99532.38
2023-03-13T01:42:17.090Z,99522.75
2023-03-13T01:44:53.312Z,99511.41
2023-03-13T01:47:22.415Z,99512.31
2023-03-13T01:50:19.949Z,99512.84
2023-03-13T01:53:04.187Z,99511.38
2023-03-13T01:55:35.251Z,99510.50
2023-03-13T01:58:05.184Z,99506.97
2023-03-13T02:00:38.080Z,99503.69
2023-03-13T02:03:16.247Z,99499.38
2023-03-13T02:05:46.157Z,99493.13
2023-03-13T02:08:19.532Z,99491.34
2023-03-13T02:10:52.651Z,99487.59
2023-03-13T02:13:24.365Z,99480.47
2023-03-13T02:15:53.364Z,99477.94
2023-03-13T02:18:21.834Z,99472.63
2023-03-13T02:20:53.591Z,99461.97
2023-03-13T02:23:28.877Z,99457.63
2023-03-13T02:25:58.493Z,99457.72
2023-03-13T02:28:39.115Z,99458.72
2023-03-13T02:31:11.641Z,99457.09
2023-03-13T02:33:42.586Z,99453.91
2023-03-13T02:36:18.016Z,99447.78
2023-03-13T02:38:52.757Z,99442.59
2023-03-13T02:41:24.057Z,99433.00
2023-03-13T02:43:55.016Z,99424.22
2023-03-13T02:46:23.240Z,99430.38
2023-03-13T02:48:56.956Z,99414.41
2023-03-13T02:51:32.350Z,99404.69
2023-03-13T02:54:05.369Z,99405.47
2023-03-13T02:56:37.608Z,99400.13
2023-03-13T02:59:07.318Z,99401.78
2023-03-13T03:01:37.360Z,99387.59
2023-03-13T03:04:06.136Z,99387.41
2023-03-13T03:06:34.356Z,99397.91
2023-03-13T03:09:05.248Z,99397.78
2023-03-13T03:11:38.570Z,99389.66
2023-03-13T03:14:11.887Z,99387.66
2023-03-13T03:16:44.666Z,99389.47
2023-03-13T03:19:13.442Z,99377.09
2023-03-13T03:21:41.691Z,99370.09
2023-03-13T03:24:10.095Z,99371.66
2023-03-13T03:26:39.644Z,99375.16
2023-03-13T03:29:14.679Z,99387.59
2023-03-13T03:31:42.782Z,99383.06
2023-03-13T03:34:11.063Z,99379.47
2023-03-13T03:36:42.633Z,99371.41
2023-03-13T03:39:10.947Z,99374.06
2023-03-13T03:41:43.268Z,99369.75
2023-03-13T03:44:12.814Z,99384.84
2023-03-13T03:46:52.601Z,99383.94
2023-03-13T03:49:21.119Z,99387.50
2023-03-13T03:51:49.895Z,99385.72
2023-03-13T03:54:25.325Z,99382.28
2023-03-13T03:56:55.204Z,99378.00
2023-03-13T03:59:23.907Z,99380.88
2023-03-13T04:02:00.904Z,99374.81
2023-03-13T04:04:30.940Z,99369.75
2023-03-13T04:07:04.980Z,99368.09
2023-03-13T04:09:34.603Z,99365.53
2023-03-13T04:12:07.109Z,99364.66
2023-03-13T04:14:40.064Z,99368.31
2023-03-13T04:17:11.641Z,99355.19
2023-03-13T04:19:40.495Z,99356.75
2023-03-13T04:22:09.140Z,99351.50
2023-03-13T04:26:26.676Z,99349.03
2023-03-13T04:28:57.027Z,99352.66
2023-03-13T04:31:44.270Z,99349.25
2023-03-13T04:34:31.071Z,99348.38
2023-03-13T04:37:17.151Z,99338.72
2023-03-13T04:40:20.538Z,99337.94
2023-03-13T04:43:22.879Z,99353.09
2023-03-13T04:46:29.709Z,99357.50
2023-03-13T04:49:16.876Z,99349.50
2023-03-13T04:52:08.652Z,99336.84
2023-03-13T04:54:59.703Z,99332.53
2023-03-13T04:58:06.763Z,99332.50
2023-03-13T05:01:03.238Z,99333.16
2023-03-13T05:03:50.282Z,99340.19
2023-03-13T05:06:31.511Z,99326.94
2023-03-13T05:09:25.025Z,99337.25
2023-03-13T05:12:12.482Z,99329.91
2023-03-13T05:15:07.887Z,99326.38
2023-03-13T05:17:56.319Z,99314.66
2023-03-13T05:20:33.970Z,99316.38
2023-03-13T05:23:23.924Z,99300.34
2023-03-13T05:25:57.693Z,99289.47
2023-03-13T05:28:46.363Z,99294.44
2023-03-13T05:31:33.481Z,99300.44
2023-03-13T05:34:29.422Z,99292.25
2023-03-13T05:37:12.465Z,99291.09
2023-03-13T05:39:59.746Z,99285.91
2023-03-13T05:42:44.008Z,99284.84
2023-03-13T05:45:44.395Z,99280.75
2023-03-13T05:48:24.318Z,99273.28
2023-03-13T05:51:12.172Z,99273.88
2023-03-13T05:53:46.585Z,99259.41
2023-03-13T05:56:40.691Z,99265.34
2023-03-13T05:59:23.737Z,99268.50
2023-03-13T06:01:59.230Z,99259.28
2023-03-13T06:04:41.987Z,99257.88
2023-03-13T06:07:11.682Z,99259.47
2023-03-13T06:09:42.864Z,99252.72
2023-03-13T06:12:12.502Z,99258.06
2023-03-13T06:14:41.081Z,99262.69
2023-03-13T06:17:15.715Z,99270.53
2023-03-13T06:19:44.050Z,99268.06
2023-03-13T06:22:13.589Z,99277.28
2023-03-13T06:24:44.640Z,99272.31
2023-03-13T06:27:12.721Z,99255.09
2023-03-13T06:29:40.949Z,99252.06
2023-03-13T06:32:09.294Z,99250.44
2023-03-13T06:34:37.768Z,99240.56
2023-03-13T06:37:06.358Z,99219.50
2023-03-13T06:39:36.160Z,99244.09
2023-03-13T06:42:04.256Z,99246.94
2023-03-13T06:44:32.628Z,99244.53
2023-03-13T06:47:00.741Z,99237.03
2023-03-13T06:49:29.021Z,99237.78
2023-03-13T06:51:58.736Z,99224.84
2023-03-13T06:54:27.839Z,99225.66
2023-03-13T06:56:57.656Z,99238.91
2023-03-13T06:59:25.874Z,99234.16
2023-03-13T07:01:59.350Z,99215.25
2023-03-13T07:04:29.717Z,99226.81
2023-03-13T07:07:00.634Z,99216.66
2023-03-13T07:09:28.698Z,99224.38
2023-03-13T07:11:58.896Z,99242.22
2023-03-13T07:14:29.168Z,99240.72
2023-03-13T07:17:00.062Z,99238.38
2023-03-13T07:19:28.397Z,99240.47
2023-03-13T07:21:57.201Z,99250.63
2023-03-13T07:24:27.545Z,99244.84
2023-03-13T07:27:06.294Z,99246.38
2023-03-13T07:29:37.086Z,99249.34
2023-03-13T07:32:05.808Z,99251.19
2023-03-13T07:34:36.350Z,99251.84
2023-03-13T07:37:04.592Z,99234.94
2023-03-13T07:39:32.743Z,99234.81
2023-03-13T07:42:01.103Z,99246.69
2023-03-13T07:44:29.862Z,99262.09
2023-03-13T07:47:02.620Z,99267.16
2023-03-13T07:49:30.896Z,99254.63
2023-03-13T07:52:01.325Z,99261.25
2023-03-13T07:54:29.454Z,99255.59
2023-03-13T07:56:57.915Z,99263.34
2023-03-13T07:59:26.129Z,99253.66
2023-03-13T08:01:54.671Z,99264.19
2023-03-13T08:04:24.209Z,99251.66
2023-03-13T08:06:54.764Z,99249.09
2023-03-13T08:09:22.896Z,99251.28
2023-03-13T08:11:53.497Z,99254.72
2023-03-13T08:14:21.570Z,99253.56
2023-03-13T08:16:51.921Z,99261.13
2023-03-13T08:19:22.257Z,99266.41
2023-03-13T08:21:51.936Z,99271.56
2023-03-13T08:24:20.176Z,99271.44
2023-03-13T08:29:34.473Z,99274.13
2023-03-13T08:32:02.753Z,99276.34
2023-03-13T08:34:30.824Z,99280.44
2023-03-13T08:37:00.531Z,99288.13
2023-03-13T08:39:28.786Z,99268.41
2023-03-13T08:41:58.930Z,99281.31
2023-03-13T08:44:27.390Z,99283.81
2023-03-13T08:47:00.011Z,99286.88
2023-03-13T08:49:30.973Z,99285.53
2023-03-13T08:52:00.659Z,99284.97
2023-03-13T08:54:28.786Z,99285.91
2023-03-13T08:56:57.157Z,99288.59
2023-03-13T08:59:25.315Z,99279.13
2023-03-13T09:01:56.139Z,99285.06
2023-03-13T09:04:24.231Z,99285.06
2023-03-13T09:06:52.665Z,99261.69
2023-03-13T09:09:24.252Z,99282.31
2023-03-13T09:11:52.985Z,99287.25
2023-03-13T09:14:21.120Z,99284.38
2023-03-13T09:16:49.980Z,99279.50
2023-03-13T09:19:18.140Z,99287.56
2023-03-13T09:21:46.762Z,99294.03
2023-03-13T09:27:28.195Z,99261.06
2023-03-13T09:29:56.439Z,99261.50
2023-03-13T09:32:24.866Z,99257.44
2023-03-13T09:34:53.044Z,99263.44
2023-03-13T09:37:21.454Z,99247.28
2023-03-13T09:39:50.149Z,99247.66
2023-03-13T09:42:21.806Z,99247.66
2023-03-13T09:44:57.822Z,99231.91
2023-03-13T09:47:31.385Z,99230.28
2023-03-13T09:50:03.390Z,99215.75
2023-03-13T09:52:36.554Z,99223.78
2023-03-13T09:55:16.535Z,99219.59
2023-03-13T09:57:51.015Z,99212.06
2023-03-13T10:00:25.454Z,99216.22
2023-03-13T10:02:58.093Z,99206.97
2023-03-13T10:05:28.923Z,99219.44
2023-03-13T10:08:01.992Z,99211.69
2023-03-13T10:10:41.429Z,99213.75
2023-03-13T10:13:18.097Z,99207.75
2023-03-13T10:15:53.796Z,99204.03
2023-03-13T10:18:24.612Z,99200.38
2023-03-13T10:20:57.897Z,99194.38
2023-03-13T10:23:36.700Z,99187.91
2023-03-13T10:26:05.033Z,99174.91
2023-03-13T10:28:35.729Z,99180.63
2023-03-13T10:31:15.788Z,99173.53
2023-03-13T10:33:44.637Z,99178.78
2023-03-13T10:36:16.261Z,99167.72
2023-03-13T10:38:50.160Z,99173.22
2023-03-13T10:41:29.239Z,99165.28
2023-03-13T10:44:01.656Z,99156.69
2023-03-13T10:46:33.856Z,99165.09
2023-03-13T10:49:04.818Z,99170.13
2023-03-13T10:51:38.237Z,99154.03
2023-03-13T10:54:16.174Z,99150.22
2023-03-13T10:56:46.720Z,99151.31
2023-03-13T10:59:24.393Z,99140.91
2023-03-13T11:02:02.261Z,99126.22
2023-03-13T11:04:33.438Z,99136.59
2023-03-13T11:07:06.317Z,99138.78
2023-03-13T11:09:35.269Z,99132.16
2023-03-13T11:12:11.633Z,99127.03
2023-03-13T11:14:40.580Z,99119.34
2023-03-13T11:17:19.928Z,99110.38
2023-03-13T11:20:00.831Z,99099.22
2023-03-13T11:22:42.954Z,99105.69
2023-03-13T11:25:20.767Z,99086.41
2023-03-13T11:27:59.559Z,99081.78
2023-03-13T11:30:50.733Z,99062.63
2023-03-13T11:33:31.146Z,99064.19
2023-03-13T11:36:04.376Z,99060.19
2023-03-13T11:38:36.812Z,99053.09
2023-03-13T11:41:24.251Z,99059.66
2023-03-13T11:44:05.890Z,99042.84
2023-03-13T11:46:47.062Z,99033.19
2023-03-13T11:49:39.642Z,99032.47
2023-03-13T11:52:25.527Z,99023.91
2023-03-13T11:55:13.701Z,99022.22
2023-03-13T11:57:50.316Z,99016.91
2023-03-13T12:00:30.401Z,99011.06
2023-03-13T12:03:06.048Z,99010.28
2023-03-13T12:05:45.762Z,99006.19
2023-03-13T12:08:19.211Z,98990.69
2023-03-13T12:11:00.031Z,99002.75
2023-03-13T12:13:33.178Z,98982.75
2023-03-13T12:16:07.657Z,98973.03
2023-03-13T12:18:43.015Z,98971.69
2023-03-13T12:21:21.049Z,98938.78
2023-03-13T12:24:02.813Z,98960.59
2023-03-13T12:26:38.490Z,98951.19
2023-03-13T12:29:12.955Z,98933.41
2023-03-13T12:31:47.474Z,98927.50
2023-03-13T12:34:21.554Z,98938.78
2023-03-13T12:36:55.220Z,98926.50
2023-03-13T12:39:31.571Z,98928.63
2023-03-13T12:42:15.272Z,98931.72
2023-03-13T12:44:43.821Z,98917.63
2023-03-13T12:47:18.543Z,98886.16
2023-03-13T12:50:16.591Z,98891.81
2023-03-13T12:53:15.100Z,98885.13
2023-03-13T12:56:06.307Z,98887.00
2023-03-13T12:58:46.502Z,98876.63
2023-03-13T13:01:20.720Z,98878.22
2023-03-13T13:03:57.171Z,98877.78
2023-03-13T13:06:25.944Z,98863.38
2023-03-13T13:09:15.702Z,98861.09
2023-03-13T13:11:50.288Z,98852.88
2023-03-13T13:14:57.767Z,98841.38
2023-03-13T13:17:41.771Z,98835.75
2023-03-13T13:20:38.038Z,98823.50
2023-03-13T13:23:35.275Z,98813.84
2023-03-13T13:26:48.789Z,98803.06
2023-03-13T13:29:57.408Z,98773.94
2023-03-13T13:32:40.287Z,98786.44
2023-03-13T13:35:36.464Z,98762.72
2023-03-13T13:38:34.559Z,98747.34
2023-03-13T13:41:06.541Z,98747.31
2023-03-13T13:43:38.582Z,98736.22
2023-03-13T13:46:24.133Z,98735.53
2023-03-13T13:49:20.339Z,98735.13
2023-03-13T13:52:41.026Z,98731.94
2023-03-13T13:55:34.413Z,98728.28
2023-03-13T13:58:05.766Z,98716.03
2023-03-13T14:00:43.542Z,98706.94
2023-03-13T14:03:24.523Z,98701.19
2023-03-13T14:05:57.646Z,98688.81
2023-03-13T14:08:29.637Z,98684.19
2023-03-13T14:11:11.377Z,98671.25
2023-03-13T14:13:40.390Z,98671.13
2023-03-13T14:16:24.703Z,98655.81
2023-03-13T14:18:54.242Z,98652.59
2023-03-13T14:21:26.595Z,98648.41
2023-03-13T14:23:55.836Z,98649.69
2023-03-13T14:28:31.125Z,98628.13
2023-03-13T14:31:00.408Z,98633.69
2023-03-13T14:33:29.178Z,98623.22
2023-03-13T14:35:59.065Z,98609.44
2023-03-13T14:38:30.043Z,98596.59
2023-03-13T14:40:59.143Z,98578.19
2023-03-13T14:43:34.731Z,98568.75
2023-03-13T14:46:15.941Z,98562.44
2023-03-13T14:48:44.538Z,98563.03
2023-03-13T14:51:22.574Z,98535.31
2023-03-13T14:53:58.368Z,98541.25
2023-03-13T14:56:36.463Z,98558.50
2023-03-13T14:59:16.346Z,98557.06
2023-03-13T15:01:46.284Z,98555.50
2023-03-13T15:04:14.888Z,98553.72
2023-03-13T15:06:43.788Z,98533.47
2023-03-13T15:09:20.999Z,98550.16
2023-03-13T15:11:58.913Z,98552.97
2023-03-13T15:14:37.477Z,98550.72
2023-03-13T15:17:16.096Z,98539.00
2023-03-13T15:19:50.944Z,98531.56
2023-03-13T15:22:21.470Z,98541.97
2023-03-13T15:25:05.015Z,98549.34
2023-03-13T15:27:35.162Z,98524.69
2023-03-13T15:30:06.099Z,98519.19
2023-03-13T15:32:37.666Z,98597.63
2023-03-13T15:35:23.344Z,98712.09
2023-03-13T15:37:52.251Z,98698.94
2023-03-13T15:40:24.286Z,98675.00
2023-03-13T15:42:53.133Z,98687.34
2023-03-13T15:45:23.292Z,98675.38
2023-03-13T15:47:52.585Z,98677.94
2023-03-13T15:50:25.732Z,98662.53
2023-03-13T15:52:54.620Z,98656.38
2023-03-13T15:55:23.142Z,98638.53
2023-03-13T15:57:52.659Z,98643.03
2023-03-13T16:00:25.691Z,98629.63
2023-03-13T16:02:54.543Z,98616.47
2023-03-13T16:05:22.963Z,98615.16
2023-03-13T16:07:52.322Z,98607.47
2023-03-13T16:10:25.755Z,98603.81
2023-03-13T16:12:54.850Z,98531.66
2023-03-13T16:15:25.389Z,98597.88
2023-03-13T16:17:55.720Z,98603.53
2023-03-13T16:20:26.547Z,98585.91
2023-03-13T16:22:55.212Z,98562.25
2023-03-13T16:25:26.961Z,98578.22
2023-03-13T16:27:56.539Z,98568.16
2023-03-13T16:30:28.475Z,98559.06
2023-03-13T16:32:57.439Z,98554.69
2023-03-13T16:35:27.353Z,98530.72
2023-03-13T16:37:56.742Z,98535.53
2023-03-13T16:40:27.068Z,98546.53
2023-03-13T16:42:55.609Z,98548.97
2023-03-13T16:45:24.569Z,98536.78
2023-03-13T16:47:54.583Z,98534.06
2023-03-13T16:50:26.523Z,98524.03
2023-03-13T16:52:55.880Z,98525.09
2023-03-13T16:55:28.429Z,98532.56
2023-03-13T16:57:57.337Z,98530.84
2023-03-13T17:00:27.881Z,98526.84
2023-03-13T17:03:01.496Z,98543.47
2023-03-13T17:05:29.894Z,98542.59
2023-03-13T17:08:00.450Z,98545.34
2023-03-13T17:10:30.835Z,98559.16
2023-03-13T17:12:59.128Z,98552.69
2023-03-13T17:15:29.731Z,98539.53
2023-03-13T17:18:00.010Z,98541.69
2023-03-13T17:20:30.023Z,98532.28
2023-03-13T17:22:58.505Z,98514.63
2023-03-13T17:25:27.134Z,98514.63
2023-03-13T17:27:55.365Z,98510.16
2023-03-13T17:30:26.972Z,98497.66
2023-03-13T17:32:55.609Z,98487.06
2023-03-13T17:35:25.599Z,98472.75
2023-03-13T17:37:53.761Z,98466.47
2023-03-13T17:40:24.089Z,98476.28
2023-03-13T17:42:52.365Z,98477.25
2023-03-13T17:45:21.332Z,98487.31
2023-03-13T17:47:50.405Z,98490.50
2023-03-13T17:50:27.236Z,98505.56
2023-03-13T17:52:57.306Z,98504.72
2023-03-13T17:55:25.709Z,98518.63
2023-03-13T17:57:53.827Z,98506.13
2023-03-13T18:00:24.855Z,98497.13
2023-03-13T18:02:55.461Z,98494.16
2023-03-13T18:05:26.130Z,98493.84
2023-03-13T18:07:56.849Z,98486.91
2023-03-13T18:10:28.464Z,98482.84
2023-03-13T18:12:57.080Z,98487.56
2023-03-13T18:15:27.259Z,98479.53
2023-03-13T18:17:55.748Z,98489.44
2023-03-13T18:23:14.021Z,98469.88
2023-03-13T18:25:42.435Z,98463.13
2023-03-13T18:28:12.276Z,98452.84
2023-03-13T18:30:43.003Z,98444.06
2023-03-13T18:33:11.508Z,98468.09
2023-03-13T18:35:41.155Z,98482.72
2023-03-13T18:38:10.602Z,98505.16
2023-03-13T18:40:38.963Z,98493.59
2023-03-13T18:43:07.555Z,98500.88
2023-03-13T18:45:37.350Z,98499.25
2023-03-13T18:48:11.099Z,98497.34
2023-03-13T18:50:41.054Z,98507.19
2023-03-13T18:53:09.777Z,98488.69
2023-03-13T18:55:38.581Z,98494.88
2023-03-13T18:58:06.753Z,98513.78
2023-03-13T19:00:35.298Z,98522.53
2023-03-13T19:03:05.977Z,98542.09
2023-03-13T19:05:36.609Z,98582.03
2023-03-13T19:08:10.135Z,98602.53
2023-03-13T19:10:40.356Z,98616.06
2023-03-13T19:13:11.024Z,98617.94
2023-03-13T19:15:41.706Z,98629.13
2023-03-13T19:18:12.494Z,98603.56
2023-03-13T19:20:41.298Z,98611.00
2023-03-13T19:23:12.188Z,98595.97
2023-03-13T19:25:40.472Z,98579.00
2023-03-13T19:29:29.885Z,98570.31
2023-03-13T19:31:59.358Z,98552.28
2023-03-13T19:34:27.625Z,98564.34
2023-03-13T19:36:58.816Z,98562.16
2023-03-13T19:39:27.377Z,98574.03
2023-03-13T19:41:58.704Z,98567.25
2023-03-13T19:44:26.958Z,98561.19
2023-03-13T19:46:57.629Z,98563.34
2023-03-13T19:49:25.794Z,98558.00
2023-03-13T19:51:57.702Z,98565.25
2023-03-13T19:54:26.014Z,98553.47
2023-03-13T19:56:57.566Z,98534.63
2023-03-13T19:59:27.746Z,98498.53
2023-03-13T20:01:57.658Z,98465.25
2023-03-13T20:04:27.406Z,98437.94
2023-03-13T20:06:57.906Z,98422.25
2023-03-13T20:09:29.241Z,98395.88
2023-03-13T20:11:57.744Z,98386.44
2023-03-13T20:14:26.015Z,98373.44
2023-03-13T20:16:58.629Z,98366.66
2023-03-13T20:19:29.555Z,98391.00
2023-03-13T20:22:03.639Z,98380.63
2023-03-13T20:24:49.695Z,98369.56
2023-03-13T20:27:18.175Z,98382.28
2023-03-13T20:29:46.537Z,98385.94
2023-03-13T20:32:16.371Z,98374.66
2023-03-13T20:34:44.688Z,98365.06
2023-03-13T20:37:13.636Z,98364.38
2023-03-13T20:39:42.044Z,98365.31
2023-03-13T20:42:12.812Z,98362.56
2023-03-13T20:44:41.217Z,98351.34
2023-03-13T20:47:12.054Z,98358.47
2023-03-13T20:49:42.100Z,98367.50
2023-03-13T20:52:10.501Z,98367.56
2023-03-13T20:54:38.927Z,98382.00
2023-03-13T20:57:08.733Z,98382.25
2023-03-13T20:59:36.890Z,98393.66
2023-03-13T21:02:06.762Z,98407.03
2023-03-13T21:04:38.071Z,98404.22
2023-03-13T21:07:10.020Z,98398.44
2023-03-13T21:09:38.160Z,98395.72
2023-03-13T21:12:06.820Z,98402.81
2023-03-13T21:14:36.445Z,98405.31
2023-03-13T21:17:07.090Z,98423.75
2023-03-13T21:19:35.525Z,98400.56
2023-03-13T21:22:04.002Z,98408.25
2023-03-13T21:24:33.481Z,98405.00
2023-03-13T21:27:01.895Z,98405.78
2023-03-13T21:29:29.958Z,98409.22
2023-03-13T21:31:58.893Z,98418.75
2023-03-13T21:34:27.203Z,98440.63
2023-03-13T21:36:55.813Z,98433.00
2023-03-13T21:39:23.992Z,98438.06
2023-03-13T21:41:53.547Z,98455.00
2023-03-13T21:44:21.755Z,98444.34
2023-03-13T21:46:50.103Z,98453.72
2023-03-13T21:49:18.427Z,98454.03
2023-03-13T21:51:46.608Z,98437.47
2023-03-13T21:54:17.100Z,98433.16
2023-03-13T21:56:45.658Z,98423.19
2023-03-13T21:59:15.314Z,98426.13
2023-03-13T22:01:43.978Z,98413.75
2023-03-13T22:04:13.034Z,98414.81
2023-03-13T22:06:41.156Z,98406.06
2023-03-13T22:09:11.895Z,98399.88
2023-03-13T22:11:42.064Z,98391.13
2023-03-13T22:14:10.157Z,98372.56
2023-03-13T22:16:39.715Z,98387.09
2023-03-13T22:19:08.615Z,98414.94
2023-03-13T22:21:36.770Z,98428.25
2023-03-13T22:24:05.189Z,98438.91
2023-03-13T22:26:33.420Z,98453.94
2023-03-13T22:29:01.561Z,98451.28
2023-03-13T22:31:29.751Z,98454.88
2023-03-13T22:34:00.329Z,98444.22
2023-03-13T22:36:28.498Z,98436.25
2023-03-13T22:38:56.732Z,98432.81
2023-03-13T22:41:24.827Z,98430.41
2023-03-13T22:43:53.399Z,98414.44
2023-03-13T22:46:21.554Z,98418.66
2023-03-13T22:48:49.946Z,98416.09
2023-03-13T22:51:19.700Z,98396.59
2023-03-13T22:53:47.986Z,98409.81
2023-03-13T22:56:19.224Z,98377.00
2023-03-13T22:58:47.572Z,98359.34
2023-03-13T23:01:19.993Z,98379.84
2023-03-13T23:03:48.100Z,98392.28
2023-03-13T23:06:23.292Z,98385.09
2023-03-13T23:08:51.530Z,98399.31
2023-03-13T23:11:24.768Z,98404.63
2023-03-13T23:13:52.796Z,98396.75
2023-03-13T23:16:20.958Z,98398.41
2023-03-13T23:18:50.058Z,98398.97
2023-03-13T23:21:21.741Z,98414.31
2023-03-13T23:23:50.658Z,98431.53
2023-03-13T23:26:18.772Z,98433.97
2023-03-13T23:28:47.269Z,98449.78
2023-03-13T23:31:17.177Z,98460.63
2023-03-13T23:33:48.523Z,98458.53
2023-03-13T23:36:18.957Z,98457.84
2023-03-13T23:38:52.393Z,98463.75
2023-03-13T23:41:21.202Z,98472.31
2023-03-13T23:43:52.093Z,98453.69
2023-03-13T23:46:26.107Z,98470.59
2023-03-13T23:48:54.715Z,98473.28
2023-03-13T23:51:23.030Z,98479.47
2023-03-13T23:53:54.635Z,98467.00
2023-03-13T23:56:25.445Z,98462.13
2023-03-13T23:58:54.590Z,98472.78
